Wylie, TX

3:54 AM CDT on September 01, 2015 (GMT -0500)
Legend Trail Estates | | Change Station
CLOSE
Current Station
Personal Weather Station
Location: St. Paul, TX
Elevation: 551 ft
Nearby Weather Stations

Elev 551 ft 33.03 °N, 96.54 °W | Updated 5 seconds ago

Partly Cloudy
Partly Cloudy
77.9 °F
Feels Like 80 °F
N
7.6
Wind Variable Wind from SW
Gusts 10.7 mph

Today
High -- | Low -- °F
--% Chance of Precip.
Yesterday
High -- | Low -- °F
Precip. -- in
7:00 AM 7:51 PM
Waning Gibbous, 90% visible
Pressure 30.03 in
Visibility 10.0 miles
Clouds Overcast 7000 ft
Heat Index 80 °F
Dew Point 73 °F
Humidity 86%
Rainfall 0.00 in
Snow Depth Not available.
UV 0 out of 12
Pollen 8.90 out of 12
Air Quality Not available.
Flu Activity Not available.
METAR KF46 010835Z AUTO 16005KT 10SM OVC070 25/21 A3003 RMK AO2 T02460206
Pressure 30.03 in
Visibility 10.0 miles
Clouds Overcast 7000 ft
Heat Index 80 °F
Dew Point 73 °F
Humidity 86%
Rainfall 0.00 in
Snow Depth Not available.
UV 0 out of 12
Pollen 8.90 out of 12
Air Quality Not available.
Flu Activity Not available.
METAR KF46 010835Z AUTO 16005KT 10SM OVC070 25/21 A3003 RMK AO2 T02460206

10-Day Weather Forecast

×

Almanac

Astronomy

Sep. 01, 2015 Rise Set
Actual Time
Civil Twilight
Nautical Twilight
Astronomical Twilight
Moon
Length of Visible Light
Length of Day
Tomorrow will be .
, % of the Moon is Illuminated

Today's Extremes

State Highs State Lows

Community

WunderPhotos

Upload Photos

1,851,490 photos uploaded!

WunderBlogs® & News

Nearby

Air Quality

  Air Quality AQ Index Pollutant
Not available.

Snow Depth

Station Depth Elevation

Earthquake Activity

City Distance Mag. Time & Date
Minimum magnitude displayed is 2.5.

Coastal Water Temperatures

Place Temperature

Stations

Nearby Weather Stations

Station Location Temp. Windchill Dew Point Humidity Wind Precip. Elev Updated Type